Time;durP1;ratioP1;P1;durP2;ratioP2;P2;SDS_P1;SDS_P2;PMS_P1;PMS_P2;Temp;Humidity;BMP_temperature;BMP_pressure;BME280_temperature;BME280_humidity;BME280_pressure;Samples;Min_cycle;Max_cycle;Signal;HPM_P1;HPM_P2
2022/09/04 00:01:09;;;;;;;6.87;4.00;;;18.00;99.90;;;19.20;88.83;100570.09;5012287;28;20616;-69
2022/09/04 00:04:05;;;;;;;3.80;3.23;;;18.00;99.90;;;19.03;90.26;100580.84;5010968;28;20657;-69
2022/09/04 00:06:41;;;;;;;5.47;3.80;;;17.90;99.90;;;18.94;90.69;100579.19;5012511;28;20712;-69
2022/09/04 00:09:36;;;;;;;5.63;3.97;;;17.90;99.90;;;18.95;90.87;100580.84;5012393;28;20700;-69
2022/09/04 00:12:09;;;;;;;5.77;3.93;;;17.80;99.90;;;18.99;90.49;100593.59;5011573;28;20629;-69
2022/09/04 00:14:52;;;;;;;4.50;3.17;;;17.80;99.90;;;18.96;90.46;100587.78;5012313;28;20638;-69
2022/09/04 00:17:45;;;;;;;5.20;3.17;;;17.80;99.90;;;19.01;90.04;100591.59;5010643;28;20792;-69
2022/09/04 00:20:33;;;;;;;3.70;3.00;;;17.80;99.90;;;18.99;89.71;100593.59;5028901;28;20628;-69
2022/09/04 00:23:43;;;;;;;3.83;3.30;;;17.80;99.90;;;19.00;89.33;100597.03;5012115;28;20704;-69
2022/09/04 00:26:45;;;;;;;3.53;2.80;;;17.80;99.90;;;18.91;89.55;100592.75;4993790;28;20627;-69
2022/09/04 00:29:30;;;;;;;5.67;2.97;;;17.80;99.90;;;18.83;89.72;100590.91;4974170;28;20672;-69
2022/09/04 00:32:19;;;;;;;3.90;3.17;;;17.70;99.90;;;18.78;90.13;100597.69;4993294;28;20622;-69
2022/09/04 00:35:06;;;;;;;4.03;3.50;;;17.70;99.90;;;18.77;90.05;100596.84;4992353;28;20649;-69
2022/09/04 00:38:21;;;;;;;3.37;2.70;;;17.70;99.90;;;18.74;90.44;100599.00;4998623;28;20644;-70
2022/09/04 00:41:14;;;;;;;5.93;3.70;;;17.60;99.90;;;18.73;90.12;100594.69;5012762;28;20652;-69
2022/09/04 00:44:02;;;;;;;5.40;3.20;;;17.60;99.90;;;18.78;90.27;100592.41;5006838;28;20765;-69
2022/09/04 00:46:55;;;;;;;5.77;3.40;;;17.60;99.90;;;18.81;90.40;100592.06;5002973;28;20632;-68
2022/09/04 00:49:39;;;;;;;4.87;3.70;;;17.60;99.90;;;18.78;90.54;100597.69;5011385;28;20661;-69
2022/09/04 00:53:17;;;;;;;4.40;3.70;;;17.60;99.90;;;18.81;90.66;100597.34;5000336;28;20631;-71
2022/09/04 00:56:29;;;;;;;3.30;3.00;;;17.60;99.90;;;18.78;90.54;100602.97;4990234;28;20619;-70
2022/09/04 00:59:14;;;;;;;3.07;2.77;;;17.60;99.90;;;18.71;90.65;100612.53;5024047;28;20640;-70
2022/09/04 01:01:46;;;;;;;3.67;3.30;;;17.60;99.90;;;18.71;90.95;100604.63;5011385;28;20633;-69
2022/09/04 01:04:31;;;;;;;5.30;3.93;;;17.60;99.90;;;18.59;91.87;100612.84;5011897;28;20700;-69
2022/09/04 01:07:23;;;;;;;6.30;4.00;;;17.50;99.90;;;18.63;91.83;100615.19;5010658;28;20744;-71
2022/09/04 01:10:11;;;;;;;7.47;4.40;;;17.50;99.90;;;18.62;92.30;100616.16;5011581;28;20667;-69
2022/09/04 01:12:59;;;;;;;7.80;4.00;;;17.50;99.90;;;18.65;92.10;100618.47;4991722;28;20976;-69
2022/09/04 01:15:35;;;;;;;5.37;3.70;;;17.40;99.90;;;18.67;92.06;100621.78;5008552;28;20638;-69
2022/09/04 01:18:29;;;;;;;6.27;4.17;;;17.50;99.90;;;18.76;91.68;100626.09;4992901;28;20728;-69
2022/09/04 01:21:16;;;;;;;7.00;4.57;;;17.50;99.90;;;18.77;91.78;100628.56;5007473;28;20662;-66
2022/09/04 01:24:24;;;;;;;6.13;4.30;;;17.60;99.90;;;18.77;91.74;100631.22;4991399;28;20635;-69
2022/09/04 01:27:13;;;;;;;9.97;5.33;;;17.50;99.90;;;18.83;91.54;100629.72;5010023;28;20717;-68
2022/09/04 01:29:55;;;;;;;6.43;4.40;;;17.60;99.90;;;18.87;91.48;100633.72;5011304;28;20661;-69
2022/09/04 01:32:39;;;;;;;7.50;4.93;;;17.60;99.90;;;18.81;91.70;100634.34;4993065;28;20644;-69
2022/09/04 01:35:33;;;;;;;7.43;5.30;;;17.60;99.90;;;18.81;91.62;100629.06;5010571;28;20648;-69
2022/09/04 01:38:15;;;;;;;5.23;4.20;;;17.60;99.90;;;18.83;91.60;100629.72;5010490;28;21072;-69
2022/09/04 01:40:52;;;;;;;7.93;5.10;;;17.60;99.90;;;18.82;91.69;100633.38;5011742;28;21001;-70
2022/09/04 01:43:20;;;;;;;7.30;5.07;;;17.70;99.90;;;18.89;91.24;100635.19;5009616;28;20692;-70
2022/09/04 01:46:06;;;;;;;6.10;5.07;;;17.70;99.90;;;18.92;91.59;100636.69;5010605;28;20616;-68
2022/09/04 01:48:44;;;;;;;7.87;4.77;;;17.70;99.90;;;18.91;91.84;100637.69;5007183;28;20719;-70
2022/09/04 01:51:40;;;;;;;5.80;4.70;;;17.70;99.90;;;18.94;91.59;100640.00;4991835;28;20599;-70
2022/09/04 01:54:14;;;;;;;7.73;5.10;;;17.70;99.90;;;18.91;90.83;100645.63;4996912;28;21079;-69
2022/09/04 01:57:13;;;;;;;6.57;4.53;;;17.70;99.90;;;18.82;91.14;100647.44;5001728;28;20638;-70
2022/09/04 02:00:07;;;;;;;5.70;4.17;;;17.60;99.90;;;18.80;90.94;100651.22;5000772;28;20645;-70
2022/09/04 02:03:11;;;;;;;6.40;4.90;;;17.60;99.90;;;18.78;90.44;100643.47;5009537;28;20638;-69
2022/09/04 02:06:07;;;;;;;9.90;4.30;;;17.60;99.90;;;18.70;90.80;100645.25;5010761;28;20617;-69
2022/09/04 02:09:23;;;;;;;5.87;4.40;;;17.50;99.90;;;18.77;90.41;100636.50;5010978;28;20650;-69
2022/09/04 02:12:28;;;;;;;4.83;4.07;;;17.50;99.90;;;18.68;91.13;100650.69;4998539;28;21327;-69
2022/09/04 02:15:30;;;;;;;5.10;4.00;;;17.50;99.90;;;18.65;91.07;100647.56;4996553;28;20660;-69
2022/09/04 02:18:18;;;;;;;5.03;4.43;;;17.50;99.90;;;18.69;90.56;100647.06;4991194;28;20721;-70
2022/09/04 02:21:29;;;;;;;5.07;4.57;;;17.40;99.90;;;18.66;89.54;100646.53;5001066;28;20650;-69
2022/09/04 02:24:42;;;;;;;5.90;4.53;;;17.40;99.90;;;18.56;89.88;100650.19;4993327;28;20664;-70
2022/09/04 02:27:22;;;;;;;4.77;4.30;;;17.40;99.90;;;18.53;90.47;100642.56;5007186;28;20610;-69
2022/09/04 02:29:58;;;;;;;8.63;5.20;;;17.30;99.90;;;18.51;90.91;100644.53;5004306;28;20676;-68
2022/09/04 02:32:48;;;;;;;9.70;5.40;;;17.30;99.90;;;18.51;90.96;100651.63;5008742;28;20629;-69
2022/09/04 02:35:39;;;;;;;8.83;6.03;;;17.40;99.90;;;18.55;90.59;100647.69;4992878;28;20638;-69
2022/09/04 02:38:41;;;;;;;9.00;5.67;;;17.30;99.90;;;18.54;90.60;100651.31;5008882;28;21004;-71
2022/09/04 02:41:29;;;;;;;6.60;4.80;;;17.40;99.90;;;18.48;90.53;100655.41;5000966;28;21008;-70
2022/09/04 02:44:38;;;;;;;9.43;5.50;;;17.40;99.90;;;18.59;89.84;100651.69;5003063;28;21005;-70
2022/09/04 02:47:50;;;;;;;6.30;4.47;;;17.40;99.90;;;18.53;89.51;100658.41;5008545;28;20621;-69
2022/09/04 02:50:31;;;;;;;5.27;4.50;;;17.40;99.90;;;18.47;90.03;100663.50;5011398;28;20661;-70
2022/09/04 02:53:03;;;;;;;6.73;4.70;;;17.40;99.90;;;18.48;90.15;100662.53;5014272;28;20652;-71
2022/09/04 02:55:58;;;;;;;8.83;5.97;;;17.40;99.90;;;18.55;89.90;100659.06;5014874;28;20809;-69
2022/09/04 02:59:05;;;;;;;9.27;5.97;;;17.40;99.90;;;18.48;90.35;100671.28;5012868;28;20629;-69
2022/09/04 03:01:56;;;;;;;8.93;5.70;;;17.40;99.90;;;18.63;88.73;100668.03;5010263;28;20656;-70
2022/09/04 03:04:39;;;;;;;9.60;6.43;;;17.50;99.90;;;18.50;89.37;100674.59;5022710;28;20637;-69
2022/09/04 03:07:20;;;;;;;10.07;5.90;;;17.40;99.90;;;18.45;90.05;100676.88;5014101;28;20612;-69
2022/09/04 03:09:58;;;;;;;7.20;5.10;;;17.30;99.90;;;18.40;90.34;100679.13;5013245;28;20649;-70
2022/09/04 03:12:40;;;;;;;7.63;5.83;;;17.30;99.90;;;18.39;90.21;100682.78;5006409;28;20709;-71
2022/09/04 03:15:15;;;;;;;7.60;5.80;;;17.20;99.90;;;18.33;91.14;100686.06;5014054;28;20664;-68
2022/09/04 03:18:00;;;;;;;7.00;4.90;;;17.20;99.90;;;18.36;91.48;100688.38;5013422;28;20605;-70
2022/09/04 03:20:35;;;;;;;8.70;6.20;;;17.20;99.90;;;18.28;92.34;100680.41;5011919;28;20645;-71
2022/09/04 03:23:52;;;;;;;6.97;5.17;;;17.20;99.90;;;18.36;92.15;100684.91;5003979;28;20763;-70
2022/09/04 03:26:35;;;;;;;7.67;5.27;;;17.10;99.90;;;18.17;92.98;100687.78;5013045;28;21115;-70
2022/09/04 03:29:14;;;;;;;9.40;6.20;;;17.20;99.90;;;18.34;92.40;100689.50;5011770;28;20673;-70
2022/09/04 03:32:09;;;;;;;10.07;5.10;;;17.20;99.90;;;18.31;92.71;100685.41;5004446;28;20982;-68
2022/09/04 03:35:26;;;;;;;6.97;5.10;;;17.20;99.90;;;18.34;92.60;100689.50;4992486;28;21088;-69
2022/09/04 03:38:19;;;;;;;5.77;4.73;;;17.20;99.90;;;18.39;92.66;100688.06;5020234;28;20645;-70
2022/09/04 03:40:52;;;;;;;7.20;5.23;;;17.20;99.90;;;18.43;92.67;100692.03;5013532;28;20712;-70
2022/09/04 03:43:33;;;;;;;7.37;5.27;;;17.20;99.90;;;18.41;92.99;100691.38;5012209;28;21040;-70
2022/09/04 03:46:33;;;;;;;9.20;5.50;;;17.20;99.90;;;18.27;94.03;100694.59;5011029;28;20633;-69
2022/09/04 03:49:43;;;;;;;8.10;5.17;;;17.10;99.90;;;18.28;94.24;100693.63;5013658;28;20665;-69
2022/09/04 03:52:22;;;;;;;10.57;6.00;;;17.10;99.90;;;18.21;94.94;100692.59;5013045;28;20721;-69
2022/09/04 03:55:43;;;;;;;9.87;5.60;;;17.10;99.90;;;18.08;96.44;100701.94;5012686;28;20652;-69
2022/09/04 03:58:36;;;;;;;9.50;5.87;;;17.00;99.90;;;18.30;95.50;100704.84;5012818;28;20621;-69
2022/09/04 04:01:35;;;;;;;8.50;5.43;;;17.10;99.90;;;18.34;95.34;100708.84;5005609;28;20638;-70
2022/09/04 04:04:42;;;;;;;8.10;5.07;;;17.10;99.90;;;18.36;94.95;100709.50;5010210;28;20657;-69
2022/09/04 04:07:51;;;;;;;6.30;4.90;;;17.10;99.90;;;18.24;95.70;100712.59;4997981;28;20658;-70
2022/09/04 04:10:47;;;;;;;5.70;4.57;;;17.10;99.90;;;18.34;94.66;100711.47;5009987;28;20661;-69
2022/09/04 04:13:52;;;;;;;7.40;4.80;;;17.20;99.90;;;18.45;93.81;100708.59;5014181;28;20622;-69
2022/09/04 04:16:29;;;;;;;9.23;5.90;;;17.20;99.90;;;18.50;94.31;100716.88;4993738;28;20985;-70
2022/09/04 04:19:24;;;;;;;8.90;5.40;;;17.20;99.90;;;18.50;93.81;100716.88;4992705;28;20641;-69
2022/09/04 04:22:26;;;;;;;8.70;5.00;;;17.30;99.90;;;18.59;93.10;100723.84;4993109;28;21201;-69
2022/09/04 04:24:56;;;;;;;9.90;5.63;;;17.30;99.90;;;18.57;93.35;100720.53;4993779;28;20726;-69
2022/09/04 04:28:00;;;;;;;11.27;5.50;;;17.30;99.90;;;18.44;94.03;100728.06;4993893;28;20967;-70
2022/09/04 04:30:53;;;;;;;9.77;5.17;;;17.30;99.90;;;18.50;94.26;100724.81;5018726;28;20673;-69
2022/09/04 04:33:58;;;;;;;8.40;5.40;;;17.30;99.90;;;18.51;94.31;100728.25;5007534;28;21017;-69
2022/09/04 04:37:09;;;;;;;10.90;6.20;;;17.30;99.90;;;18.44;94.83;100733.34;5026111;28;20636;-68
2022/09/04 04:40:09;;;;;;;10.63;6.13;;;17.30;99.90;;;18.56;94.27;100742.66;5009667;28;20725;-69
2022/09/04 04:43:11;;;;;;;12.87;6.60;;;17.30;99.90;;;18.51;94.76;100739.66;5005792;28;20673;-69
2022/09/04 04:45:55;;;;;;;8.33;5.00;;;17.30;99.90;;;18.41;94.51;100741.56;5011156;28;20630;-69
2022/09/04 04:49:06;;;;;;;11.40;5.27;;;17.30;99.90;;;18.40;95.75;100747.00;5009753;28;20621;-67
2022/09/04 04:52:02;;;;;;;8.70;5.53;;;17.20;99.90;;;18.42;96.16;100751.13;5008608;28;21325;-69
2022/09/04 04:54:36;;;;;;;10.70;6.30;;;17.20;99.90;;;18.27;97.04;100750.06;4995614;28;20688;-69
2022/09/04 04:57:18;;;;;;;10.00;6.60;;;17.20;99.90;;;18.35;97.23;100760.69;5011057;28;21002;-70
2022/09/04 05:00:17;;;;;;;9.17;5.27;;;17.20;99.90;;;18.45;96.84;100760.59;5006831;28;21010;-69
2022/09/04 05:03:26;;;;;;;10.50;6.17;;;17.30;99.90;;;18.52;96.14;100769.56;4992363;28;20618;-70
2022/09/04 05:06:40;;;;;;;9.50;5.70;;;17.30;99.90;;;18.62;96.05;100778.19;4997240;28;20646;-71
2022/09/04 05:09:48;;;;;;;12.73;8.03;;;17.40;99.90;;;18.64;95.74;100776.22;5022066;28;20674;-69
2022/09/04 05:13:12;;;;;;;11.20;6.77;;;17.40;99.90;;;18.72;94.99;100778.88;5011566;28;20621;-70
2022/09/04 05:15:56;;;;;;;10.47;6.67;;;17.50;99.90;;;18.78;93.67;100788.84;5007911;28;20634;-69
2022/09/04 05:18:54;;;;;;;8.27;5.80;;;17.60;99.90;;;18.82;93.10;100792.81;5023626;28;20614;-70
2022/09/04 05:21:35;;;;;;;12.03;6.60;;;17.60;99.90;;;18.93;92.66;100787.22;5025521;28;20630;-70
2022/09/04 05:24:33;;;;;;;10.70;6.00;;;17.70;99.90;;;18.96;92.33;100784.28;5010335;28;20661;-71
2022/09/04 05:27:21;;;;;;;11.87;6.70;;;17.70;99.90;;;19.08;91.54;100788.28;5010766;28;20637;-71
2022/09/04 05:30:00;;;;;;;7.83;5.20;;;17.80;99.90;;;19.09;91.53;100799.69;5005177;28;20753;-67
2022/09/04 05:33:04;;;;;;;10.27;6.40;;;17.80;99.90;;;19.03;91.48;100805.63;5002320;28;20625;-70
2022/09/04 05:36:24;;;;;;;10.00;6.30;;;17.80;99.90;;;18.97;91.88;100811.56;5009878;28;20613;-70
2022/09/04 05:39:28;;;;;;;11.50;6.50;;;17.80;99.90;;;18.87;92.81;100819.59;5002955;28;20638;-69
2022/09/04 05:42:48;;;;;;;11.67;7.07;;;17.70;99.90;;;18.71;93.91;100813.41;5010083;28;20622;-69
2022/09/04 05:46:00;;;;;;;9.97;5.97;;;17.70;99.90;;;18.71;93.19;100821.34;5000243;28;20672;-69
2022/09/04 05:49:05;;;;;;;8.67;5.33;;;17.60;99.90;;;18.45;94.97;100824.00;4990008;28;20623;-69
2022/09/04 05:51:44;;;;;;;12.53;6.40;;;17.50;99.90;;;18.63;94.71;100827.44;4990111;28;20616;-70
2022/09/04 05:54:25;;;;;;;11.57;6.67;;;17.50;99.90;;;18.71;94.71;100831.91;4996627;28;20668;-69
2022/09/04 05:57:32;;;;;;;11.73;6.30;;;17.50;99.90;;;18.76;94.17;100833.09;5010631;28;21216;-69
2022/09/04 06:00:02;;;;;;;9.83;6.60;;;17.60;99.90;;;18.94;92.97;100841.78;4992132;28;20623;-70
2022/09/04 06:02:59;;;;;;;11.67;7.07;;;17.70;99.90;;;19.03;92.70;100840.84;5010595;28;20614;-70
2022/09/04 06:06:13;;;;;;;10.50;7.10;;;17.70;99.90;;;19.11;92.83;100840.03;5010328;28;20668;-67
2022/09/04 06:09:19;;;;;;;10.90;6.77;;;17.80;99.90;;;19.23;92.29;100849.31;5011373;28;20640;-70
2022/09/04 06:12:16;;;;;;;12.50;7.37;;;17.90;99.90;;;19.45;91.31;100848.75;5011972;28;21187;-70
2022/09/04 06:15:09;;;;;;;13.80;8.23;;;18.10;99.90;;;19.59;90.53;100856.06;5006045;28;20669;-70
2022/09/04 06:18:20;;;;;;;10.87;6.17;;;18.20;99.90;;;19.69;89.66;100859.41;4998867;28;20635;-69
2022/09/04 06:21:32;;;;;;;16.30;7.70;;;18.30;99.90;;;19.64;90.19;100859.03;4990131;28;20627;-70
2022/09/04 06:24:11;;;;;;;13.30;7.40;;;18.30;99.90;;;19.72;89.33;100856.41;4998135;28;20642;-71
2022/09/04 06:27:31;;;;;;;15.67;8.10;;;18.40;99.90;;;19.86;89.50;100863.72;4992493;28;20615;-69
2022/09/04 06:30:07;;;;;;;15.10;7.70;;;18.50;99.90;;;19.94;88.75;100863.72;5005558;28;21071;-68
2022/09/04 06:32:40;;;;;;;21.07;10.37;;;18.60;99.90;;;20.05;87.58;100871.34;4988709;28;20629;-68
2022/09/04 06:35:39;;;;;;;19.67;9.37;;;18.60;99.90;;;20.07;88.07;100876.47;4990903;28;20661;-69
2022/09/04 06:38:48;;;;;;;22.67;8.90;;;18.70;99.90;;;20.16;88.17;100878.13;4995306;28;20648;-66
2022/09/04 06:41:39;;;;;;;14.23;7.37;;;18.70;99.90;;;20.12;87.83;100879.47;5009613;28;20634;-69
2022/09/04 06:44:18;;;;;;;16.60;8.10;;;18.80;99.90;;;19.91;88.24;100885.22;5009167;28;20644;-69
2022/09/04 06:47:19;;;;;;;18.37;7.70;;;18.70;99.90;;;19.95;87.69;100891.84;4998894;28;20626;-69
2022/09/04 06:49:57;;;;;;;16.80;7.73;;;18.70;99.90;;;19.82;87.90;100894.19;5008679;28;20755;-70
2022/09/04 06:52:55;;;;;;;17.87;8.47;;;18.70;99.90;;;19.76;89.27;100892.16;5009360;28;20614;-68
2022/09/04 06:55:29;;;;;;;18.13;9.60;;;18.60;99.90;;;19.82;88.95;100891.53;5009278;28;20665;-69
2022/09/04 06:58:21;;;;;;;16.80;9.17;;;18.60;99.90;;;19.76;90.08;100899.28;5003043;28;20621;-69
2022/09/04 07:01:07;;;;;;;18.83;8.57;;;18.60;99.90;;;19.86;88.98;100900.78;5001461;28;20639;-69
2022/09/04 07:04:01;;;;;;;19.07;9.30;;;18.60;99.90;;;20.09;87.47;100899.16;4999000;28;20630;-69
2022/09/04 07:06:47;;;;;;;14.87;7.70;;;18.70;99.90;;;20.19;86.92;100908.78;4996172;28;20619;-70
2022/09/04 07:09:21;;;;;;;13.20;7.30;;;18.80;99.90;;;20.13;86.48;100910.25;5004553;28;20628;-69
2022/09/04 07:12:06;;;;;;;15.13;7.67;;;18.90;99.90;;;20.12;87.11;100903.31;5015487;28;20626;-70
2022/09/04 07:15:11;;;;;;;14.63;8.07;;;18.80;99.90;;;20.22;86.14;100911.94;4992804;28;20639;-70
2022/09/04 07:17:49;;;;;;;13.40;7.77;;;18.90;99.90;;;20.19;86.80;100908.78;5023767;28;21014;-70
2022/09/04 07:20:32;;;;;;;16.27;9.13;;;18.90;99.90;;;20.15;87.13;100913.56;5002596;28;20688;-70
2022/09/04 07:23:14;;;;;;;14.50;9.67;;;18.90;99.90;;;20.26;86.97;100909.78;5015916;28;21203;-68
2022/09/04 07:26:27;;;;;;;16.37;7.93;;;18.90;99.90;;;20.50;85.64;100907.13;5008984;28;20633;-69
2022/09/04 07:29:19;;;;;;;16.60;9.10;;;19.00;99.90;;;20.54;85.76;100911.09;5008483;28;21019;-68
2022/09/04 07:32:06;;;;;;;18.40;8.20;;;19.10;99.90;;;20.01;86.76;100922.16;4999836;28;20641;-70
2022/09/04 07:35:07;;;;;;;18.47;9.00;;;19.00;99.90;;;20.06;87.25;100918.00;5006714;28;20660;-69
2022/09/04 07:38:01;;;;;;;22.77;10.53;;;18.90;99.90;;;20.15;87.46;100929.44;5010951;28;21197;-70
2022/09/04 07:40:54;;;;;;;19.03;9.00;;;18.90;99.90;;;20.26;86.78;100936.28;5012634;28;20998;-70
2022/09/04 07:43:35;;;;;;;21.53;9.40;;;18.90;99.90;;;20.28;86.01;100939.59;5010019;28;20649;-70
2022/09/04 07:46:29;;;;;;;18.10;9.00;;;19.00;99.90;;;20.66;85.14;100936.25;5003626;28;20686;-70
2022/09/04 07:49:14;;;;;;;15.77;8.77;;;19.10;99.90;;;20.96;82.78;100943.50;5010396;28;20622;-70
2022/09/04 07:51:58;;;;;;;13.50;7.13;;;19.40;99.90;;;20.83;82.90;100951.13;5000076;28;20681;-68
2022/09/04 07:55:08;;;;;;;10.23;6.50;;;19.40;99.90;;;20.27;86.40;100948.53;5000127;28;20748;-72
2022/09/04 07:58:20;;;;;;;14.67;8.33;;;19.10;99.90;;;20.75;84.41;100944.03;5007198;28;21180;-70
2022/09/04 08:01:30;;;;;;;13.20;7.97;;;19.30;99.90;;;21.46;80.79;100953.81;5005469;28;20680;-69
2022/09/04 08:04:22;;;;;;;17.77;6.80;;;19.70;99.90;;;22.04;78.17;100954.16;5002505;28;20646;-68
2022/09/04 08:07:04;;;;;;;12.80;7.40;;;20.10;99.90;;;22.53;75.57;100954.63;5014309;28;20630;-70
2022/09/04 08:10:36;;;;;;;7.90;5.50;;;20.70;99.90;;;23.70;69.69;100962.72;5011709;28;20625;-70
2022/09/04 08:13:41;;;;;;;7.93;5.07;;;21.40;99.90;;;23.72;68.67;100968.69;4954436;28;20639;-71
2022/09/04 08:16:34;;;;;;;9.00;6.60;;;21.80;99.90;;;23.87;68.26;100982.78;4953949;28;21207;-70
2022/09/04 08:19:22;;;;;;;12.17;7.67;;;22.00;99.90;;;24.35;67.41;100974.09;4983010;28;20658;-70
2022/09/04 08:21:52;;;;;;;12.67;7.80;;;22.30;99.90;;;24.88;65.89;100977.22;5010705;28;20633;-70
2022/09/04 08:24:48;;;;;;;9.97;7.17;;;22.70;99.90;;;25.62;63.42;100973.75;5009965;28;20635;-69
2022/09/04 08:28:00;;;;;;;9.27;7.27;;;23.20;99.90;;;26.97;58.95;100995.81;5007674;28;20637;-69
2022/09/04 08:30:41;;;;;;;11.10;6.00;;;24.00;99.90;;;27.42;56.04;100994.94;5001263;28;20665;-69
2022/09/04 08:33:52;;;;;;;8.77;6.10;;;24.50;99.90;;;27.34;56.03;100993.28;5017907;28;21300;-69
2022/09/04 08:36:56;;;;;;;11.97;8.20;;;24.70;99.90;;;28.49;53.75;100998.50;5006714;28;20617;-71
2022/09/04 08:39:39;;;;;;;10.40;6.93;;;25.40;99.90;;;28.44;53.13;101003.69;5009730;28;20614;-68
2022/09/04 08:43:14;;;;;;;9.93;7.03;;;25.60;99.90;;;28.02;53.45;101005.22;5008554;28;20672;-69
2022/09/04 08:46:14;;;;;;;8.13;6.27;;;25.70;99.90;;;26.87;56.71;100996.25;5015739;28;20679;-69
2022/09/04 08:49:18;;;;;;;8.20;6.27;;;24.90;99.90;;;26.05;60.09;101012.56;4992459;28;20634;-73
2022/09/04 08:53:00;;;;;;;8.00;5.77;;;24.20;99.90;;;26.75;57.78;101005.91;5010095;28;20665;-71
2022/09/04 08:55:56;;;;;;;9.10;6.20;;;24.60;99.90;;;26.97;56.88;101012.72;4989163;28;20644;-70
2022/09/04 08:58:31;;;;;;;8.63;6.37;;;24.90;99.90;;;26.60;58.28;101016.00;5002344;28;20617;-70
2022/09/04 09:01:40;;;;;;;10.50;6.70;;;24.50;99.90;;;27.28;56.53;101026.25;4998988;28;20725;-69
2022/09/04 09:04:46;;;;;;;11.57;6.70;;;24.80;99.90;;;28.14;53.96;101016.91;5012631;28;20666;-71
2022/09/04 09:07:40;;;;;;;9.37;6.70;;;25.20;99.90;;;29.67;50.41;101011.63;5001853;28;20704;-72
2022/09/04 09:10:48;;;;;;;8.40;6.90;;;26.20;99.90;;;30.25;48.96;101017.28;5008312;28;20668;-71
2022/09/04 09:13:36;;;;;;;8.13;6.60;;;26.80;99.90;;;32.04;45.29;101007.44;4999919;28;20629;-72
2022/09/04 09:16:27;;;;;;;8.30;7.47;;;27.80;99.90;;;34.54;39.97;101007.69;5000089;28;21024;-70
2022/09/04 09:19:32;;;;;;;7.80;6.20;;;29.10;99.90;;;39.04;32.69;101010.56;4999501;28;20634;-71
2022/09/04 09:22:43;;;;;;;5.80;5.30;;;31.50;97.70;;;43.40;25.35;101009.63;4999023;28;20732;-72
2022/09/04 09:25:26;;;;;;;6.60;6.00;;;34.70;90.20;;;44.10;24.42;101008.59;4999233;28;20661;-70
2022/09/04 09:28:53;;;;;;;6.30;5.70;;;36.20;80.30;;;46.91;21.62;101008.00;5006884;28;21162;-69
2022/09/04 09:32:24;;;;;;;6.53;5.93;;;38.20;72.60;;;49.06;19.04;101003.22;4999873;28;20737;-68
2022/09/04 09:35:50;;;;;;;5.43;5.03;;;40.30;65.40;;;49.32;18.92;101002.66;5000340;28;20647;-68
2022/09/04 09:38:35;;;;;;;5.73;5.33;;;41.10;60.20;;;48.25;19.78;100998.31;5009175;28;21011;-68
2022/09/04 09:41:23;;;;;;;6.27;5.80;;;40.50;59.30;;;47.15;20.30;100991.44;5006185;28;20743;-67
2022/09/04 09:44:15;;;;;;;4.90;4.60;;;40.70;58.40;;;47.13;20.96;100987.41;5007069;28;20757;-71
2022/09/04 09:47:16;;;;;;;5.80;5.30;;;40.30;57.90;;;46.21;21.00;100992.50;4990165;28;20657;-68
2022/09/04 09:50:44;;;;;;;6.10;5.60;;;39.80;57.50;;;45.36;22.15;100991.22;4991015;28;20618;-71
2022/09/04 09:54:10;;;;;;;4.93;4.63;;;39.30;57.70;;;48.52;19.22;100988.38;4970242;28;20627;-67
2022/09/04 09:56:54;;;;;;;6.53;6.10;;;40.70;56.80;;;49.91;17.85;100975.44;4953202;28;20651;-71
2022/09/04 09:59:43;;;;;;;4.97;4.67;;;42.10;54.90;;;51.28;16.62;100981.81;5001413;28;20859;-72
2022/09/04 10:03:00;;;;;;;5.10;4.70;;;42.90;53.80;;;51.32;16.63;100974.31;5021488;28;20637;-66
2022/09/04 10:06:48;;;;;;;5.40;5.10;;;43.10;52.30;;;51.66;16.84;100971.22;5010169;28;20621;-66
2022/09/04 10:09:33;;;;;;;6.03;5.57;;;43.40;52.20;;;52.01;16.44;100979.19;4968528;28;20641;-69
2022/09/04 10:12:21;;;;;;;5.60;5.20;;;43.90;51.10;;;52.71;15.77;100972.72;4991662;28;20666;-68
2022/09/04 10:15:16;;;;;;;5.33;5.03;;;44.40;50.40;;;51.62;16.56;100964.00;4992425;28;21218;-69
2022/09/04 10:18:35;;;;;;;5.53;5.23;;;44.10;50.20;;;51.48;16.49;100961.03;5015875;28;20641;-69
2022/09/04 10:21:45;;;;;;;5.83;5.50;;;43.90;50.30;;;50.88;17.34;100960.94;5004968;28;20618;-69
2022/09/04 10:24:36;;;;;;;5.30;5.00;;;43.60;50.10;;;50.38;18.13;100958.47;5012185;28;20645;-70
2022/09/04 10:27:56;;;;;;;4.93;4.63;;;42.90;50.80;;;48.23;19.49;100948.88;5025346;28;20638;-67
2022/09/04 10:30:28;;;;;;;5.40;5.00;;;42.00;51.40;;;45.36;22.34;100945.16;5023409;28;20666;-67
2022/09/04 10:33:20;;;;;;;6.20;5.77;;;40.30;53.50;;;42.87;24.80;100940.31;4997525;28;20649;-67
2022/09/04 10:36:21;;;;;;;5.70;5.30;;;38.90;54.70;;;40.01;28.59;100932.59;5017634;28;20641;-67
2022/09/04 10:42:55;;;;;;;5.10;4.60;;;35.30;59.60;;;34.06;38.22;100930.03;5005973;28;20618;-68
2022/09/04 10:45:32;;;;;;;5.13;3.80;;;32.80;63.40;;;32.02;41.09;100933.16;4998923;28;20640;-67
2022/09/04 10:48:24;;;;;;;3.67;3.37;;;31.20;65.80;;;31.52;42.82;100924.91;5025180;28;20628;-67
2022/09/04 10:51:13;;;;;;;3.80;3.50;;;30.20;69.10;;;31.46;43.45;100922.34;4996553;28;20662;-67
2022/09/04 10:54:16;;;;;;;4.50;4.10;;;29.90;70.70;;;30.85;45.07;100920.19;5038900;23;21809;-65
2022/09/04 10:57:27;;;;;;;4.17;3.87;;;29.50;72.90;;;30.44;45.70;100924.66;4991527;28;20623;-66
2022/09/04 11:00:21;;;;;;;3.57;3.27;;;29.00;74.60;;;30.13;46.45;100921.44;5005604;28;20741;-65
2022/09/04 11:03:24;;;;;;;7.40;5.93;;;28.70;76.40;;;29.77;46.26;100920.50;4997037;28;20965;-65
2022/09/04 11:06:01;;;;;;;10.47;9.13;;;28.30;76.40;;;29.46;46.74;100915.31;4990002;28;21174;-66
2022/09/04 11:09:01;;;;;;;5.13;4.10;;;28.00;77.70;;;29.23;47.13;100925.13;4991305;28;20627;-65
2022/09/04 11:12:20;;;;;;;3.20;3.00;;;27.70;79.50;;;28.98;48.41;100925.97;4980222;28;21262;-65
2022/09/04 11:15:26;;;;;;;5.00;3.70;;;27.40;82.20;;;28.46;50.05;100931.00;4990480;28;20650;-65
2022/09/04 11:18:32;;;;;;;4.00;3.70;;;27.00;85.30;;;28.29;50.84;100925.38;4991381;28;20645;-67
2022/09/04 11:21:55;;;;;;;3.23;3.03;;;26.70;88.60;;;28.05;51.20;100921.63;4995429;28;20630;-65
2022/09/04 11:24:54;;;;;;;3.30;3.10;;;26.50;90.60;;;27.91;51.41;100914.69;4980891;28;20724;-68
2022/09/04 11:27:47;;;;;;;3.07;2.87;;;26.40;91.90;;;27.98;50.79;100917.34;4994914;28;20619;-65
2022/09/04 11:30:21;;;;;;;3.40;2.87;;;26.40;92.30;;;27.56;50.47;100919.63;4995026;28;21205;-66
2022/09/04 11:33:18;;;;;;;3.93;3.13;;;26.10;91.90;;;27.22;51.92;100919.94;4995045;28;21214;-64
2022/09/04 11:36:11;;;;;;;3.00;2.80;;;25.90;93.30;;;27.13;52.29;100912.34;4994904;28;20622;-66
2022/09/04 11:39:36;;;;;;;4.30;2.40;;;25.80;93.80;;;27.17;51.35;100911.72;4995222;28;20618;-66
2022/09/04 11:42:21;;;;;;;2.63;2.53;;;25.80;93.70;;;27.13;50.83;100915.84;4994534;28;20692;-65
2022/09/04 11:45:21;;;;;;;3.50;2.80;;;25.70;93.70;;;27.01;52.33;100908.66;4995054;28;20639;-67
2022/09/04 11:48:10;;;;;;;3.23;2.97;;;25.60;94.90;;;27.06;52.52;100908.88;4994560;28;20614;-66
2022/09/04 11:51:15;;;;;;;2.07;1.87;;;25.60;95.50;;;26.39;54.16;100901.94;4990285;28;20641;-65
2022/09/04 11:54:09;;;;;;;2.47;2.27;;;25.40;96.20;;;26.86;52.43;100906.22;4994586;28;20646;-65
2022/09/04 11:57:18;;;;;;;3.33;3.03;;;25.50;96.10;;;26.96;51.67;100911.97;4993777;28;20638;-65
2022/09/04 11:59:51;;;;;;;2.90;2.70;;;25.60;95.80;;;27.08;51.15;100907.63;4993687;28;20615;-66
2022/09/04 12:02:18;;;;;;;3.00;2.80;;;25.60;95.50;;;27.24;51.39;100912.50;4994663;28;20637;-66
2022/09/04 12:05:04;;;;;;;6.03;2.30;;;25.70;96.10;;;27.30;51.34;100906.28;4994311;28;20647;-66
2022/09/04 12:07:43;;;;;;;2.57;2.47;;;25.80;96.20;;;27.39;50.34;100918.47;4994367;28;20618;-66
2022/09/04 12:10:25;;;;;;;2.90;2.40;;;25.80;95.60;;;27.63;49.29;100914.22;4990768;28;20638;-65